createdAt,value
2018-05-11T00:02:19.994Z,6.47
2018-05-11T00:04:48.324Z,8.13
2018-05-11T00:07:16.667Z,6.67
2018-05-11T00:09:44.993Z,7.27
2018-05-11T00:12:13.335Z,10.27
2018-05-11T00:14:42.079Z,6.33
2018-05-11T00:17:10.394Z,8.55
2018-05-11T00:19:38.870Z,9.25
2018-05-11T00:22:07.592Z,7.12
2018-05-11T00:24:36.329Z,5.90
2018-05-11T00:27:05.197Z,8.23
2018-05-11T00:29:33.532Z,5.00
2018-05-11T00:32:02.639Z,9.87
2018-05-11T00:34:31.249Z,7.77
2018-05-11T00:37:00.003Z,7.87
2018-05-11T00:39:28.518Z,6.57
2018-05-11T00:41:56.943Z,10.00
2018-05-11T00:44:25.405Z,8.00
2018-05-11T00:46:54.028Z,7.57
2018-05-11T00:49:22.354Z,7.22
2018-05-11T00:51:50.888Z,6.27
2018-05-11T00:54:19.245Z,12.57
2018-05-11T00:56:47.601Z,11.03
2018-05-11T00:59:15.913Z,7.97
2018-05-11T01:01:45.491Z,7.07
2018-05-11T01:04:13.964Z,6.30
2018-05-11T01:06:43.245Z,7.30
2018-05-11T01:09:12.357Z,6.30
2018-05-11T01:11:40.824Z,8.05
2018-05-11T01:14:09.136Z,7.13
2018-05-11T01:16:38.071Z,8.27
2018-05-11T01:19:06.411Z,6.03
2018-05-11T01:21:34.947Z,5.78
2018-05-11T01:24:03.684Z,9.03
2018-05-11T01:26:32.883Z,9.53
2018-05-11T01:29:03.160Z,8.77
2018-05-11T01:31:31.454Z,10.00
2018-05-11T01:33:59.787Z,6.83
2018-05-11T01:36:28.194Z,9.95
2018-05-11T01:38:56.569Z,10.07
2018-05-11T01:41:25.062Z,8.70
2018-05-11T01:43:53.348Z,10.65
2018-05-11T01:46:21.785Z,6.13
2018-05-11T01:48:50.120Z,7.53
2018-05-11T01:51:18.449Z,9.45
2018-05-11T01:53:46.971Z,10.47
2018-05-11T01:56:15.465Z,10.93
2018-05-11T01:58:45.714Z,8.43
2018-05-11T02:01:14.984Z,7.67
2018-05-11T02:03:43.306Z,7.90
2018-05-11T02:06:11.754Z,9.97
2018-05-11T02:08:40.255Z,9.27
2018-05-11T02:11:09.335Z,12.97
2018-05-11T02:13:38.440Z,9.20
2018-05-11T02:16:07.569Z,11.20
2018-05-11T02:18:35.913Z,9.80
2018-05-11T02:21:04.196Z,10.60
2018-05-11T02:23:34.304Z,10.98
2018-05-11T02:26:03.570Z,9.70
2018-05-11T02:28:32.122Z,10.27
2018-05-11T02:31:00.785Z,7.90
2018-05-11T02:33:30.969Z,8.17
2018-05-11T02:35:59.259Z,9.47
2018-05-11T02:38:27.626Z,8.13
2018-05-11T02:40:56.301Z,10.53
2018-05-11T02:43:24.809Z,6.97
2018-05-11T02:45:53.230Z,8.17
2018-05-11T02:48:21.540Z,9.27
2018-05-11T02:50:49.889Z,8.17
2018-05-11T02:53:18.450Z,7.03
2018-05-11T02:55:46.794Z,10.27
2018-05-11T02:58:15.448Z,13.57
2018-05-11T03:00:43.671Z,9.20
2018-05-11T03:03:13.945Z,8.98
2018-05-11T03:05:42.613Z,14.50
2018-05-11T03:08:11.081Z,11.47
2018-05-11T03:10:39.573Z,7.10
2018-05-11T03:13:07.879Z,9.80
2018-05-11T03:15:36.218Z,7.90
2018-05-11T03:18:04.561Z,6.97
2018-05-11T03:20:32.859Z,8.40
2018-05-11T03:23:01.942Z,11.82
2018-05-11T03:25:30.474Z,9.18
2018-05-11T03:27:58.804Z,9.03
2018-05-11T03:30:27.898Z,7.43
2018-05-11T03:32:57.540Z,8.57
2018-05-11T03:35:27.591Z,7.57
2018-05-11T03:37:56.024Z,10.90
2018-05-11T03:40:24.440Z,8.77
2018-05-11T03:42:52.781Z,8.70
2018-05-11T03:45:21.849Z,8.27
2018-05-11T03:47:50.141Z,8.10
2018-05-11T03:50:19.199Z,9.87
2018-05-11T03:52:47.595Z,12.80
2018-05-11T03:55:15.935Z,9.80
2018-05-11T03:57:44.302Z,10.10
2018-05-11T04:00:14.114Z,10.00
2018-05-11T04:03:00.170Z,10.88
2018-05-11T04:08:47.319Z,8.07
2018-05-11T04:11:16.462Z,10.90
2018-05-11T04:13:44.740Z,14.33
2018-05-11T04:16:13.080Z,9.17
2018-05-11T04:18:41.371Z,11.80
2018-05-11T04:21:09.771Z,9.83
2018-05-11T04:23:38.210Z,8.57
2018-05-11T04:26:07.614Z,13.57
2018-05-11T04:28:36.189Z,11.23
2018-05-11T04:31:05.316Z,10.93
2018-05-11T04:33:33.766Z,8.93
2018-05-11T04:36:02.824Z,10.50
2018-05-11T04:38:31.150Z,11.70
2018-05-11T04:40:59.410Z,9.90
2018-05-11T04:43:28.487Z,10.73
2018-05-11T04:45:56.919Z,10.47
2018-05-11T04:48:25.247Z,11.90
2018-05-11T04:50:53.546Z,10.33
2018-05-11T04:53:21.825Z,14.40
2018-05-11T04:55:50.976Z,13.60
2018-05-11T04:58:19.420Z,10.05
2018-05-11T05:00:47.726Z,12.23
2018-05-11T05:03:16.311Z,15.43
2018-05-11T05:05:44.608Z,14.10
2018-05-11T05:08:13.109Z,10.23
2018-05-11T05:10:42.265Z,12.80
2018-05-11T05:13:10.756Z,17.50
2018-05-11T05:15:39.061Z,10.10
2018-05-11T05:18:08.165Z,13.70
2018-05-11T05:20:37.304Z,11.82
2018-05-11T05:23:05.709Z,15.17
2018-05-11T05:25:34.085Z,9.80
2018-05-11T05:28:02.590Z,10.32
2018-05-11T05:30:31.685Z,14.40
2018-05-11T05:33:00.901Z,12.13
2018-05-11T05:35:29.261Z,14.63
2018-05-11T05:37:57.579Z,11.53
2018-05-11T05:40:25.905Z,14.27
2018-05-11T05:42:54.214Z,10.87
2018-05-11T05:45:24.249Z,13.48
2018-05-11T05:47:52.665Z,13.67
2018-05-11T05:50:20.960Z,14.40
2018-05-11T05:52:49.341Z,16.97
2018-05-11T05:55:17.820Z,17.90
2018-05-11T05:57:46.477Z,17.48
2018-05-11T06:00:15.030Z,19.93
2018-05-11T06:02:43.564Z,21.20
2018-05-11T06:05:12.146Z,18.87
2018-05-11T06:07:40.679Z,20.85
2018-05-11T06:10:09.028Z,20.20
2018-05-11T06:12:37.485Z,22.47
2018-05-11T06:15:06.765Z,19.40
2018-05-11T06:17:35.330Z,18.77
2018-05-11T06:20:03.841Z,19.43
2018-05-11T06:22:32.239Z,18.73
2018-05-11T06:25:01.343Z,16.63
2018-05-11T06:27:30.465Z,19.93
2018-05-11T06:29:58.791Z,27.90
2018-05-11T06:32:27.925Z,27.67
2018-05-11T06:34:57.491Z,25.88
2018-05-11T06:37:26.613Z,22.40
2018-05-11T06:39:55.703Z,20.15
2018-05-11T06:42:24.185Z,28.75
2018-05-11T06:44:53.341Z,25.60
2018-05-11T06:47:21.731Z,17.57
2018-05-11T06:49:50.615Z,16.10
2018-05-11T06:52:19.057Z,17.33
2018-05-11T06:54:47.420Z,19.13
2018-05-11T06:57:16.631Z,21.60
2018-05-11T06:59:45.274Z,19.90
2018-05-11T07:02:13.709Z,17.35
2018-05-11T07:04:42.924Z,19.57
2018-05-11T07:07:11.241Z,16.97
2018-05-11T07:09:40.396Z,16.73
2018-05-11T07:12:08.741Z,19.73
2018-05-11T07:14:37.118Z,19.20
2018-05-11T07:17:05.500Z,16.47
2018-05-11T07:19:33.844Z,20.10
2018-05-11T07:22:02.206Z,13.40
2018-05-11T07:24:30.532Z,22.10
2018-05-11T07:26:58.910Z,26.47
2018-05-11T07:29:27.206Z,17.40
2018-05-11T07:31:55.578Z,18.60
2018-05-11T07:34:23.914Z,19.50
2018-05-11T07:36:52.203Z,23.27
2018-05-11T07:39:21.299Z,21.73
2018-05-11T07:41:50.527Z,23.43
2018-05-11T07:44:18.918Z,25.10
2018-05-11T07:46:47.481Z,16.67
2018-05-11T07:49:16.024Z,17.30
2018-05-11T07:51:44.372Z,20.30
2018-05-11T07:54:12.781Z,19.50
2018-05-11T07:56:41.119Z,20.23
2018-05-11T07:59:09.465Z,18.10
2018-05-11T08:01:38.667Z,19.70
2018-05-11T08:04:07.185Z,18.80
2018-05-11T08:06:35.555Z,29.92
2018-05-11T08:09:04.025Z,25.90
2018-05-11T08:11:32.364Z,20.97
2018-05-11T08:14:00.679Z,15.57
2018-05-11T08:16:29.049Z,18.77
2018-05-11T08:18:58.017Z,17.90
2018-05-11T08:21:27.310Z,18.67
2018-05-11T08:23:55.586Z,18.60
2018-05-11T08:26:24.031Z,17.75
2018-05-11T08:28:52.415Z,15.87
2018-05-11T08:31:20.871Z,15.37
2018-05-11T08:33:50.321Z,16.83
2018-05-11T08:36:18.852Z,14.27
2018-05-11T08:38:47.457Z,14.97
2018-05-11T08:41:16.067Z,13.83
2018-05-11T08:43:44.395Z,13.17
2018-05-11T08:46:12.787Z,14.10
2018-05-11T08:48:41.180Z,15.53
2018-05-11T08:51:10.499Z,14.40
2018-05-11T08:53:39.228Z,13.60
2018-05-11T08:56:08.457Z,12.87
2018-05-11T08:58:36.816Z,14.47
2018-05-11T09:01:06.746Z,22.50
2018-05-11T09:03:35.244Z,11.40
2018-05-11T09:06:03.603Z,15.30
2018-05-11T09:08:32.324Z,13.27
2018-05-11T09:11:00.627Z,12.77
2018-05-11T09:13:29.128Z,16.83
2018-05-11T09:15:57.441Z,13.00
2018-05-11T09:18:25.825Z,18.77
2018-05-11T09:20:54.425Z,12.80
2018-05-11T09:23:23.022Z,12.40
2018-05-11T09:25:51.358Z,12.40
2018-05-11T09:28:19.847Z,14.40
2018-05-11T09:30:49.711Z,13.67
2018-05-11T09:33:19.963Z,11.17
2018-05-11T09:35:48.255Z,14.07
2018-05-11T09:38:16.579Z,9.50
2018-05-11T09:40:45.668Z,11.00
2018-05-11T09:43:15.153Z,12.30
2018-05-11T09:45:44.218Z,9.40
2018-05-11T09:48:12.609Z,12.60
2018-05-11T09:50:41.711Z,11.53
2018-05-11T09:53:10.056Z,11.85
2018-05-11T09:55:38.483Z,12.73
2018-05-11T09:58:06.854Z,11.97
2018-05-11T10:00:35.242Z,9.63
2018-05-11T10:03:05.569Z,13.68
2018-05-11T10:05:33.977Z,14.43
2018-05-11T10:08:02.308Z,12.60
2018-05-11T10:10:30.635Z,10.82
2018-05-11T10:12:59.137Z,13.63
2018-05-11T10:15:27.483Z,12.15
2018-05-11T10:17:56.942Z,10.73
2018-05-11T10:20:25.286Z,13.40
2018-05-11T10:22:53.687Z,10.43
2018-05-11T10:25:21.993Z,9.77
2018-05-11T10:27:50.736Z,9.07
2018-05-11T10:30:19.291Z,10.90
2018-05-11T10:32:48.421Z,9.60
2018-05-11T10:35:16.815Z,13.23
2018-05-11T10:37:45.136Z,13.43
2018-05-11T10:40:14.245Z,15.17
2018-05-11T10:42:43.588Z,11.82
2018-05-11T10:45:11.908Z,13.80
2018-05-11T10:47:40.302Z,11.27
2018-05-11T10:50:08.784Z,10.40
2018-05-11T10:52:37.358Z,12.30
2018-05-11T10:55:06.647Z,12.18
2018-05-11T10:57:34.927Z,11.40
2018-05-11T11:00:03.337Z,10.20
2018-05-11T11:02:32.546Z,9.93
2018-05-11T11:05:01.272Z,9.57
2018-05-11T11:07:30.439Z,9.43
2018-05-11T11:09:58.829Z,8.82
2018-05-11T11:12:27.362Z,12.40
2018-05-11T11:14:56.812Z,13.50
2018-05-11T11:17:25.171Z,9.63
2018-05-11T11:19:53.590Z,8.37
2018-05-11T11:22:21.860Z,8.17
2018-05-11T11:24:50.375Z,7.20
2018-05-11T11:27:19.539Z,10.07
2018-05-11T11:29:47.937Z,10.17
2018-05-11T11:32:16.729Z,7.70
2018-05-11T11:34:45.298Z,14.33
2018-05-11T11:37:15.399Z,9.50
2018-05-11T11:39:43.731Z,8.67
2018-05-11T11:42:12.220Z,8.83
2018-05-11T11:44:40.464Z,8.23
2018-05-11T11:47:09.020Z,7.83
2018-05-11T11:49:37.368Z,7.80
2018-05-11T11:52:05.996Z,8.98
2018-05-11T11:54:34.296Z,8.97
2018-05-11T11:57:03.573Z,9.07
2018-05-11T11:59:31.888Z,7.20
2018-05-11T12:02:01.180Z,8.68
2018-05-11T12:04:30.315Z,13.53
2018-05-11T12:06:58.652Z,8.93
2018-05-11T12:09:28.855Z,9.23
2018-05-11T12:11:57.178Z,8.40
2018-05-11T12:14:25.519Z,4.47
2018-05-11T12:16:54.649Z,8.13
2018-05-11T12:19:23.016Z,6.17
2018-05-11T12:21:51.657Z,7.13
2018-05-11T12:24:19.963Z,10.83
2018-05-11T12:26:49.232Z,5.57
2018-05-11T12:29:17.543Z,6.57
2018-05-11T12:31:46.841Z,9.70
2018-05-11T12:34:16.162Z,6.17
2018-05-11T12:36:44.545Z,11.45
2018-05-11T12:39:13.137Z,7.83
2018-05-11T12:41:42.703Z,9.85
2018-05-11T12:44:11.120Z,5.73
2018-05-11T12:46:39.435Z,6.87
2018-05-11T12:49:07.848Z,8.93
2018-05-11T12:51:37.091Z,13.30
2018-05-11T12:54:05.414Z,7.40
2018-05-11T12:56:34.641Z,6.67
2018-05-11T12:59:03.101Z,8.50
2018-05-11T13:01:31.509Z,6.90
2018-05-11T13:03:59.891Z,4.93
2018-05-11T13:06:28.278Z,5.95
2018-05-11T13:08:56.659Z,6.63
2018-05-11T13:11:26.037Z,5.93
2018-05-11T13:13:54.607Z,7.03
2018-05-11T13:16:23.748Z,8.33
2018-05-11T13:18:52.145Z,9.37
2018-05-11T13:21:20.528Z,6.53
2018-05-11T13:23:48.898Z,8.47
2018-05-11T13:26:17.326Z,6.53
2018-05-11T13:28:45.699Z,9.00
2018-05-11T13:31:14.794Z,6.50
2018-05-11T13:33:44.001Z,5.27
2018-05-11T13:36:12.352Z,7.28
2018-05-11T13:38:40.928Z,8.57
2018-05-11T13:41:09.243Z,6.73
2018-05-11T13:43:39.437Z,5.80
2018-05-11T13:46:09.690Z,6.33
2018-05-11T13:48:38.002Z,4.57
2018-05-11T13:51:06.401Z,6.60
2018-05-11T13:53:34.811Z,6.97
2018-05-11T13:56:04.264Z,7.27
2018-05-11T13:58:32.753Z,6.77
2018-05-11T14:01:01.166Z,6.87
2018-05-11T14:03:30.392Z,8.70
2018-05-11T14:05:58.679Z,6.70
2018-05-11T14:08:27.065Z,7.27
2018-05-11T14:10:55.462Z,6.57
2018-05-11T14:13:23.890Z,6.93
2018-05-11T14:15:53.111Z,5.53
2018-05-11T14:18:21.659Z,6.83
2018-05-11T14:20:50.918Z,8.47
2018-05-11T14:23:19.319Z,7.40
2018-05-11T14:25:47.652Z,6.03
2018-05-11T14:28:15.953Z,4.80
2018-05-11T14:30:44.403Z,8.57
2018-05-11T14:33:13.135Z,5.32
2018-05-11T14:35:41.462Z,5.07
2018-05-11T14:38:09.813Z,7.97
2018-05-11T14:40:38.994Z,6.43
2018-05-11T14:43:08.234Z,5.63
2018-05-11T14:45:36.636Z,6.87
2018-05-11T14:48:05.258Z,4.37
2018-05-11T14:50:34.378Z,5.50
2018-05-11T14:53:03.745Z,6.90
2018-05-11T14:55:32.157Z,6.05
2018-05-11T14:58:01.293Z,3.80
2018-05-11T15:00:29.696Z,6.00
2018-05-11T15:02:58.033Z,5.23
2018-05-11T15:05:26.399Z,8.93
2018-05-11T15:07:54.729Z,7.72
2018-05-11T15:10:23.065Z,26.57
2018-05-11T15:12:51.459Z,10.27
2018-05-11T15:15:19.789Z,6.43
2018-05-11T15:17:50.222Z,6.43
2018-05-11T15:20:19.417Z,4.67
2018-05-11T15:22:48.608Z,5.73
2018-05-11T15:25:17.933Z,8.23
2018-05-11T15:27:46.322Z,6.37
2018-05-11T15:30:14.992Z,7.10
2018-05-11T15:32:43.348Z,6.67
2018-05-11T15:35:11.953Z,10.50
2018-05-11T15:37:41.052Z,8.10
2018-05-11T15:40:09.449Z,7.28
2018-05-11T15:42:37.789Z,6.77
2018-05-11T15:45:06.145Z,6.27
2018-05-11T15:47:34.493Z,5.43
2018-05-11T15:50:03.707Z,7.13
2018-05-11T15:52:32.219Z,5.93
2018-05-11T15:55:00.710Z,6.67
2018-05-11T15:57:29.237Z,9.70
2018-05-11T15:59:57.588Z,7.40
2018-05-11T16:02:25.978Z,6.57
2018-05-11T16:04:54.373Z,5.53
2018-05-11T16:07:23.095Z,6.40
2018-05-11T16:09:51.574Z,6.80
2018-05-11T16:12:19.939Z,18.37
2018-05-11T16:14:48.577Z,9.38
2018-05-11T16:17:17.233Z,6.83
2018-05-11T16:19:45.614Z,8.43
2018-05-11T16:22:14.019Z,9.77
2018-05-11T16:24:42.453Z,7.47
2018-05-11T16:27:11.072Z,9.47
2018-05-11T16:29:39.426Z,7.23
2018-05-11T16:32:07.778Z,13.90
2018-05-11T16:34:36.220Z,5.68
2018-05-11T16:37:04.554Z,8.35
2018-05-11T16:39:32.921Z,4.47
2018-05-11T16:42:01.430Z,6.82
2018-05-11T16:44:30.665Z,7.07
2018-05-11T16:46:59.009Z,4.97
2018-05-11T16:49:27.409Z,8.57
2018-05-11T16:51:56.538Z,6.77
2018-05-11T16:54:24.910Z,4.90
2018-05-11T16:56:53.260Z,4.07
2018-05-11T16:59:21.762Z,5.27
2018-05-11T17:01:50.188Z,6.47
2018-05-11T17:04:18.572Z,4.53
2018-05-11T17:06:47.119Z,5.70
2018-05-11T17:09:15.602Z,4.53
2018-05-11T17:11:44.214Z,8.87
2018-05-11T17:14:12.523Z,7.32
2018-05-11T17:16:41.878Z,5.87
2018-05-11T17:19:10.238Z,7.40
2018-05-11T17:21:38.650Z,8.70
2018-05-11T17:24:07.017Z,2.90
2018-05-11T17:26:35.410Z,5.35
2018-05-11T17:29:04.581Z,4.70
2018-05-11T17:31:32.976Z,6.85
2018-05-11T17:34:01.498Z,4.17
2018-05-11T17:36:29.913Z,4.23
2018-05-11T17:38:59.123Z,6.17
2018-05-11T17:41:28.415Z,4.43
2018-05-11T17:43:57.024Z,5.40
2018-05-11T17:46:26.422Z,5.60
2018-05-11T17:48:55.640Z,6.47
2018-05-11T17:51:23.991Z,7.03
2018-05-11T17:53:52.453Z,5.53
2018-05-11T17:56:20.805Z,6.93
2018-05-11T17:58:49.603Z,4.53
2018-05-11T18:01:17.939Z,6.93
2018-05-11T18:03:47.060Z,4.17
2018-05-11T18:06:15.504Z,4.60
2018-05-11T18:08:43.853Z,5.07
2018-05-11T18:11:12.532Z,4.00
2018-05-11T18:13:40.993Z,4.03
2018-05-11T18:16:09.569Z,4.00
2018-05-11T18:18:38.160Z,4.00
2018-05-11T18:21:06.524Z,3.90
2018-05-11T18:23:35.204Z,4.90
2018-05-11T18:26:03.617Z,7.50
2018-05-11T18:28:32.140Z,4.28
2018-05-11T18:31:01.427Z,8.10
2018-05-11T18:33:29.890Z,6.55
2018-05-11T18:35:58.276Z,4.87
2018-05-11T18:38:27.465Z,3.87
2018-05-11T18:40:55.905Z,4.27
2018-05-11T18:43:24.460Z,5.10
2018-05-11T18:45:53.949Z,5.72
2018-05-11T18:48:23.909Z,6.23
2018-05-11T18:50:52.440Z,8.70
2018-05-11T18:53:21.955Z,6.03
2018-05-11T18:55:50.280Z,4.67
2018-05-11T18:58:18.675Z,5.60
2018-05-11T19:00:47.339Z,6.70
2018-05-11T19:03:17.614Z,5.53
2018-05-11T19:05:48.249Z,7.68
2018-05-11T19:08:16.796Z,5.40
2018-05-11T19:10:45.315Z,3.97
2018-05-11T19:13:14.652Z,6.03
2018-05-11T19:15:43.028Z,4.82
2018-05-11T19:18:12.679Z,4.25
2018-05-11T19:20:41.264Z,5.90
2018-05-11T19:23:09.614Z,6.20
2018-05-11T19:25:37.977Z,4.53
2018-05-11T19:28:06.362Z,4.90
2018-05-11T19:30:35.044Z,5.10
2018-05-11T19:33:03.522Z,4.53
2018-05-11T19:35:32.020Z,4.80
2018-05-11T19:38:02.145Z,5.72
2018-05-11T19:40:30.583Z,4.32
2018-05-11T19:42:59.231Z,5.47
2018-05-11T19:45:27.685Z,5.50
2018-05-11T19:47:56.158Z,4.97
2018-05-11T19:50:24.506Z,7.10
2018-05-11T19:52:52.884Z,4.43
2018-05-11T19:55:21.493Z,3.57
2018-05-11T19:57:49.933Z,4.47
2018-05-11T20:00:18.335Z,4.47
2018-05-11T20:02:46.923Z,5.87
2018-05-11T20:05:15.725Z,6.80
2018-05-11T20:07:44.209Z,5.43
2018-05-11T20:10:12.685Z,5.43
2018-05-11T20:12:41.104Z,4.97
2018-05-11T20:15:09.625Z,3.70
2018-05-11T20:17:38.105Z,7.20
2018-05-11T20:20:07.271Z,4.93
2018-05-11T20:22:35.791Z,4.77
2018-05-11T20:25:04.274Z,6.93
2018-05-11T20:27:32.630Z,5.33
2018-05-11T20:30:01.753Z,5.67
2018-05-11T20:32:30.172Z,10.30
2018-05-11T20:34:58.448Z,6.80
2018-05-11T20:37:26.875Z,6.73
2018-05-11T20:39:55.301Z,6.13
2018-05-11T20:42:23.691Z,6.10
2018-05-11T20:44:53.595Z,8.18
2018-05-11T20:47:21.939Z,5.30
2018-05-11T20:49:50.366Z,6.77
2018-05-11T20:52:18.749Z,4.97
2018-05-11T20:54:47.482Z,6.30
2018-05-11T20:57:15.873Z,16.23
2018-05-11T20:59:44.444Z,14.63
2018-05-11T21:02:12.893Z,8.73
2018-05-11T21:04:41.330Z,6.17
2018-05-11T21:07:09.706Z,7.33
2018-05-11T21:09:38.311Z,7.20
2018-05-11T21:12:06.828Z,4.43
2018-05-11T21:14:35.169Z,6.55
2018-05-11T21:17:04.265Z,6.03
2018-05-11T21:19:32.716Z,6.23
2018-05-11T21:22:01.084Z,7.87
2018-05-11T21:24:30.396Z,5.73
2018-05-11T21:26:58.795Z,6.63
2018-05-11T21:29:27.221Z,4.77
2018-05-11T21:31:55.764Z,8.63
2018-05-11T21:34:24.621Z,7.93
2018-05-11T21:36:53.102Z,8.93
2018-05-11T21:39:21.585Z,7.97
2018-05-11T21:41:49.955Z,7.63
2018-05-11T21:44:18.430Z,7.30
2018-05-11T21:46:46.832Z,5.27
2018-05-11T21:49:15.508Z,8.70
2018-05-11T21:51:43.922Z,11.93
2018-05-11T21:54:12.239Z,8.37
2018-05-11T21:56:40.566Z,9.93
2018-05-11T21:59:08.930Z,6.97
2018-05-11T22:01:37.286Z,8.83
2018-05-11T22:04:05.946Z,6.73
2018-05-11T22:06:35.110Z,8.43
2018-05-11T22:09:03.475Z,8.52
2018-05-11T22:11:31.809Z,10.93
2018-05-11T22:14:00.158Z,7.13
2018-05-11T22:16:28.619Z,8.70
2018-05-11T22:18:56.918Z,8.17
2018-05-11T22:21:26.296Z,10.10
2018-05-11T22:23:54.653Z,7.73
2018-05-11T22:26:23.020Z,7.40
2018-05-11T22:28:51.383Z,8.73
2018-05-11T22:31:19.689Z,9.77
2018-05-11T22:33:48.261Z,10.30
2018-05-11T22:36:16.594Z,9.27
2018-05-11T22:38:45.713Z,9.73
2018-05-11T22:41:14.068Z,12.20
2018-05-11T22:43:43.494Z,8.00
2018-05-11T22:46:11.956Z,8.97
2018-05-11T22:48:41.106Z,9.90
2018-05-11T22:51:09.440Z,13.52
2018-05-11T22:53:38.599Z,11.57
2018-05-11T22:56:07.618Z,13.57
2018-05-11T22:58:36.114Z,12.83
2018-05-11T23:01:05.476Z,15.13
2018-05-11T23:03:33.900Z,10.30
2018-05-11T23:06:02.171Z,16.10
2018-05-11T23:08:31.361Z,11.30
2018-05-11T23:10:59.923Z,13.00
2018-05-11T23:13:28.301Z,9.80
2018-05-11T23:15:57.457Z,10.23
2018-05-11T23:18:25.835Z,9.60
2018-05-11T23:20:54.136Z,12.57
2018-05-11T23:23:22.495Z,13.03
2018-05-11T23:25:50.833Z,17.47
2018-05-11T23:28:21.030Z,14.90
2018-05-11T23:30:49.355Z,13.70
2018-05-11T23:33:17.744Z,13.83
2018-05-11T23:35:46.201Z,15.73
2018-05-11T23:38:14.638Z,12.73
2018-05-11T23:40:43.015Z,9.17
2018-05-11T23:43:11.448Z,9.77
2018-05-11T23:45:39.746Z,10.57
2018-05-11T23:48:08.098Z,8.60
2018-05-11T23:50:36.441Z,10.25
2018-05-11T23:53:04.769Z,11.63
2018-05-11T23:55:33.115Z,8.23
2018-05-11T23:58:03.336Z,10.37
